sensor_id;sensor_type;location;lat;lon;timestamp;temperature;humidity
57652;DHT22;43480;53.116;6.734;2023-11-21T00:01:54;9.20;99.90
57652;DHT22;43480;53.116;6.734;2023-11-21T00:04:20;9.10;99.90
57652;DHT22;43480;53.116;6.734;2023-11-21T00:06:46;9.10;99.90
57652;DHT22;43480;53.116;6.734;2023-11-21T00:09:13;9.10;99.90
57652;DHT22;43480;53.116;6.734;2023-11-21T00:11:41;9.00;99.90
57652;DHT22;43480;53.116;6.734;2023-11-21T00:14:07;9.00;99.90
57652;DHT22;43480;53.116;6.734;2023-11-21T00:16:33;9.00;99.90
57652;DHT22;43480;53.116;6.734;2023-11-21T00:18:59;8.90;99.90
57652;DHT22;43480;53.116;6.734;2023-11-21T00:21:25;8.90;99.90
57652;DHT22;43480;53.116;6.734;2023-11-21T00:23:51;8.90;99.90
57652;DHT22;43480;53.116;6.734;2023-11-21T00:26:16;8.90;99.90
57652;DHT22;43480;53.116;6.734;2023-11-21T00:28:42;9.00;99.90
57652;DHT22;43480;53.116;6.734;2023-11-21T00:31:08;9.00;99.90
57652;DHT22;43480;53.116;6.734;2023-11-21T00:33:33;9.00;99.90
57652;DHT22;43480;53.116;6.734;2023-11-21T00:35:59;9.00;99.90
57652;DHT22;43480;53.116;6.734;2023-11-21T00:38:26;9.00;99.90
57652;DHT22;43480;53.116;6.734;2023-11-21T00:40:53;8.90;99.90
57652;DHT22;43480;53.116;6.734;2023-11-21T00:43:22;8.90;99.90
57652;DHT22;43480;53.116;6.734;2023-11-21T00:45:48;8.80;99.90
57652;DHT22;43480;53.116;6.734;2023-11-21T00:48:16;8.80;99.90
57652;DHT22;43480;53.116;6.734;2023-11-21T00:50:43;8.70;99.90
57652;DHT22;43480;53.116;6.734;2023-11-21T00:53:09;8.70;99.90
57652;DHT22;43480;53.116;6.734;2023-11-21T00:55:36;8.70;99.90
57652;DHT22;43480;53.116;6.734;2023-11-21T00:58:02;8.70;99.90
57652;DHT22;43480;53.116;6.734;2023-11-21T01:00:29;8.70;99.90
57652;DHT22;43480;53.116;6.734;2023-11-21T01:02:55;8.70;99.90
57652;DHT22;43480;53.116;6.734;2023-11-21T01:05:21;8.70;99.90
57652;DHT22;43480;53.116;6.734;2023-11-21T01:07:46;8.80;99.90
57652;DHT22;43480;53.116;6.734;2023-11-21T01:10:12;8.80;99.90
57652;DHT22;43480;53.116;6.734;2023-11-21T01:12:38;8.80;99.90
57652;DHT22;43480;53.116;6.734;2023-11-21T01:15:05;8.80;99.90
57652;DHT22;43480;53.116;6.734;2023-11-21T01:17:34;8.80;99.90
57652;DHT22;43480;53.116;6.734;2023-11-21T01:20:01;8.80;99.90
57652;DHT22;43480;53.116;6.734;2023-11-21T01:22:27;8.80;99.90
57652;DHT22;43480;53.116;6.734;2023-11-21T01:24:53;8.90;99.90
57652;DHT22;43480;53.116;6.734;2023-11-21T01:27:19;8.90;99.90
57652;DHT22;43480;53.116;6.734;2023-11-21T01:29:45;8.90;99.90
57652;DHT22;43480;53.116;6.734;2023-11-21T01:32:10;8.90;99.90
57652;DHT22;43480;53.116;6.734;2023-11-21T01:34:36;8.90;99.90
57652;DHT22;43480;53.116;6.734;2023-11-21T01:37:02;9.00;99.90
57652;DHT22;43480;53.116;6.734;2023-11-21T01:39:30;9.00;99.90
57652;DHT22;43480;53.116;6.734;2023-11-21T01:41:57;8.90;99.90
57652;DHT22;43480;53.116;6.734;2023-11-21T01:44:24;9.00;99.90
57652;DHT22;43480;53.116;6.734;2023-11-21T01:46:50;9.00;99.90
57652;DHT22;43480;53.116;6.734;2023-11-21T01:49:16;9.00;99.90
57652;DHT22;43480;53.116;6.734;2023-11-21T01:51:45;9.00;99.90
57652;DHT22;43480;53.116;6.734;2023-11-21T01:54:12;9.00;99.90
57652;DHT22;43480;53.116;6.734;2023-11-21T01:56:37;9.10;99.90
57652;DHT22;43480;53.116;6.734;2023-11-21T01:59:03;9.10;99.90
57652;DHT22;43480;53.116;6.734;2023-11-21T02:01:29;9.10;99.90
57652;DHT22;43480;53.116;6.734;2023-11-21T02:03:54;9.10;99.90
57652;DHT22;43480;53.116;6.734;2023-11-21T02:06:21;9.10;99.90
57652;DHT22;43480;53.116;6.734;2023-11-21T02:08:47;9.10;99.90
57652;DHT22;43480;53.116;6.734;2023-11-21T02:11:13;9.10;99.90
57652;DHT22;43480;53.116;6.734;2023-11-21T02:13:39;9.20;99.90
57652;DHT22;43480;53.116;6.734;2023-11-21T02:16:12;9.20;99.90
57652;DHT22;43480;53.116;6.734;2023-11-21T02:18:39;9.20;99.90
57652;DHT22;43480;53.116;6.734;2023-11-21T02:21:05;9.20;99.90
57652;DHT22;43480;53.116;6.734;2023-11-21T02:23:30;9.20;99.90
57652;DHT22;43480;53.116;6.734;2023-11-21T02:25:56;9.20;99.90
57652;DHT22;43480;53.116;6.734;2023-11-21T02:28:22;9.20;99.90
57652;DHT22;43480;53.116;6.734;2023-11-21T02:30:52;9.20;99.90
57652;DHT22;43480;53.116;6.734;2023-11-21T02:33:24;9.30;99.90
57652;DHT22;43480;53.116;6.734;2023-11-21T02:35:50;9.30;99.90
57652;DHT22;43480;53.116;6.734;2023-11-21T02:38:20;9.30;99.90
57652;DHT22;43480;53.116;6.734;2023-11-21T02:40:46;9.30;99.90
57652;DHT22;43480;53.116;6.734;2023-11-21T02:43:12;9.30;99.90
57652;DHT22;43480;53.116;6.734;2023-11-21T02:45:37;9.30;99.90
57652;DHT22;43480;53.116;6.734;2023-11-21T02:48:03;9.30;99.90
57652;DHT22;43480;53.116;6.734;2023-11-21T02:50:29;9.30;99.90
57652;DHT22;43480;53.116;6.734;2023-11-21T02:52:55;9.30;99.90
57652;DHT22;43480;53.116;6.734;2023-11-21T02:55:23;9.30;99.90
57652;DHT22;43480;53.116;6.734;2023-11-21T02:57:50;9.30;99.90
57652;DHT22;43480;53.116;6.734;2023-11-21T03:00:16;9.30;99.90
57652;DHT22;43480;53.116;6.734;2023-11-21T03:02:42;9.30;99.90
57652;DHT22;43480;53.116;6.734;2023-11-21T03:05:09;9.30;99.90
57652;DHT22;43480;53.116;6.734;2023-11-21T03:07:35;9.30;99.90
57652;DHT22;43480;53.116;6.734;2023-11-21T03:10:00;9.30;99.90
57652;DHT22;43480;53.116;6.734;2023-11-21T03:12:26;9.30;99.90
57652;DHT22;43480;53.116;6.734;2023-11-21T03:14:52;9.40;99.90
57652;DHT22;43480;53.116;6.734;2023-11-21T03:17:17;9.30;99.90
57652;DHT22;43480;53.116;6.734;2023-11-21T03:19:43;9.40;99.90
57652;DHT22;43480;53.116;6.734;2023-11-21T03:22:09;9.30;99.90
57652;DHT22;43480;53.116;6.734;2023-11-21T03:24:35;9.40;99.90
57652;DHT22;43480;53.116;6.734;2023-11-21T03:27:00;9.30;99.90
57652;DHT22;43480;53.116;6.734;2023-11-21T03:29:26;9.40;99.90
57652;DHT22;43480;53.116;6.734;2023-11-21T03:31:52;9.40;99.90
57652;DHT22;43480;53.116;6.734;2023-11-21T03:34:27;9.40;99.90
57652;DHT22;43480;53.116;6.734;2023-11-21T03:36:53;9.40;99.90
57652;DHT22;43480;53.116;6.734;2023-11-21T03:39:20;9.40;99.90
57652;DHT22;43480;53.116;6.734;2023-11-21T03:41:46;9.40;99.90
57652;DHT22;43480;53.116;6.734;2023-11-21T03:44:12;9.40;99.90
57652;DHT22;43480;53.116;6.734;2023-11-21T03:46:38;9.40;99.90
57652;DHT22;43480;53.116;6.734;2023-11-21T03:49:04;9.40;99.90
57652;DHT22;43480;53.116;6.734;2023-11-21T03:51:29;9.40;99.90
57652;DHT22;43480;53.116;6.734;2023-11-21T03:53:55;9.40;99.90
57652;DHT22;43480;53.116;6.734;2023-11-21T03:56:20;9.40;99.90
57652;DHT22;43480;53.116;6.734;2023-11-21T03:58:49;9.40;99.90
57652;DHT22;43480;53.116;6.734;2023-11-21T04:01:21;9.40;99.90
57652;DHT22;43480;53.116;6.734;2023-11-21T04:03:47;9.40;99.90
57652;DHT22;43480;53.116;6.734;2023-11-21T04:06:13;9.40;99.90
57652;DHT22;43480;53.116;6.734;2023-11-21T04:08:39;9.40;99.90
57652;DHT22;43480;53.116;6.734;2023-11-21T04:11:04;9.40;99.90
57652;DHT22;43480;53.116;6.734;2023-11-21T04:13:30;9.50;99.90
57652;DHT22;43480;53.116;6.734;2023-11-21T04:15:56;9.40;99.90
57652;DHT22;43480;53.116;6.734;2023-11-21T04:18:22;9.40;99.90
57652;DHT22;43480;53.116;6.734;2023-11-21T04:20:49;9.40;99.90
57652;DHT22;43480;53.116;6.734;2023-11-21T04:23:15;9.40;99.90
57652;DHT22;43480;53.116;6.734;2023-11-21T04:25:40;9.40;99.90
57652;DHT22;43480;53.116;6.734;2023-11-21T04:28:06;9.40;99.90
57652;DHT22;43480;53.116;6.734;2023-11-21T04:30:32;9.40;99.90
57652;DHT22;43480;53.116;6.734;2023-11-21T04:32:58;9.40;99.90
57652;DHT22;43480;53.116;6.734;2023-11-21T04:35:24;9.50;99.90
57652;DHT22;43480;53.116;6.734;2023-11-21T04:37:49;9.40;99.90
57652;DHT22;43480;53.116;6.734;2023-11-21T04:40:16;9.40;99.90
57652;DHT22;43480;53.116;6.734;2023-11-21T04:42:42;9.40;99.90
57652;DHT22;43480;53.116;6.734;2023-11-21T04:45:08;9.50;99.90
57652;DHT22;43480;53.116;6.734;2023-11-21T04:47:35;9.40;99.90
57652;DHT22;43480;53.116;6.734;2023-11-21T04:50:02;9.40;99.90
57652;DHT22;43480;53.116;6.734;2023-11-21T04:52:28;9.50;99.90
57652;DHT22;43480;53.116;6.734;2023-11-21T04:54:54;9.50;99.90
57652;DHT22;43480;53.116;6.734;2023-11-21T04:57:20;9.50;99.90
57652;DHT22;43480;53.116;6.734;2023-11-21T04:59:50;9.40;99.90
57652;DHT22;43480;53.116;6.734;2023-11-21T05:02:16;9.40;99.90
57652;DHT22;43480;53.116;6.734;2023-11-21T05:04:42;9.40;99.90
57652;DHT22;43480;53.116;6.734;2023-11-21T05:07:08;9.50;99.90
57652;DHT22;43480;53.116;6.734;2023-11-21T05:09:33;9.50;99.90
57652;DHT22;43480;53.116;6.734;2023-11-21T05:11:59;9.40;99.90
57652;DHT22;43480;53.116;6.734;2023-11-21T05:14:25;9.50;99.90
57652;DHT22;43480;53.116;6.734;2023-11-21T05:16:51;9.40;99.90
57652;DHT22;43480;53.116;6.734;2023-11-21T05:19:17;9.40;99.90
57652;DHT22;43480;53.116;6.734;2023-11-21T05:21:43;9.40;99.90
57652;DHT22;43480;53.116;6.734;2023-11-21T05:24:09;9.50;99.90
57652;DHT22;43480;53.116;6.734;2023-11-21T05:26:35;9.40;99.90
57652;DHT22;43480;53.116;6.734;2023-11-21T05:29:00;9.50;99.90
57652;DHT22;43480;53.116;6.734;2023-11-21T05:31:26;9.50;99.90
57652;DHT22;43480;53.116;6.734;2023-11-21T05:33:52;9.50;99.90
57652;DHT22;43480;53.116;6.734;2023-11-21T05:36:18;9.50;99.90
57652;DHT22;43480;53.116;6.734;2023-11-21T05:38:44;9.50;99.90
57652;DHT22;43480;53.116;6.734;2023-11-21T05:41:09;9.40;99.90
57652;DHT22;43480;53.116;6.734;2023-11-21T05:43:39;9.50;99.90
57652;DHT22;43480;53.116;6.734;2023-11-21T05:46:05;9.40;99.90
57652;DHT22;43480;53.116;6.734;2023-11-21T05:48:32;9.40;99.90
57652;DHT22;43480;53.116;6.734;2023-11-21T05:50:58;9.40;99.90
57652;DHT22;43480;53.116;6.734;2023-11-21T05:53:24;9.40;99.90
57652;DHT22;43480;53.116;6.734;2023-11-21T05:55:50;9.40;99.90
57652;DHT22;43480;53.116;6.734;2023-11-21T05:58:16;9.40;99.90
57652;DHT22;43480;53.116;6.734;2023-11-21T06:00:41;9.40;99.90
57652;DHT22;43480;53.116;6.734;2023-11-21T06:03:07;9.40;99.90
57652;DHT22;43480;53.116;6.734;2023-11-21T06:05:33;9.40;99.90
57652;DHT22;43480;53.116;6.734;2023-11-21T06:07:59;9.40;99.90
57652;DHT22;43480;53.116;6.734;2023-11-21T06:10:26;9.40;99.90
57652;DHT22;43480;53.116;6.734;2023-11-21T06:12:52;9.40;99.90
57652;DHT22;43480;53.116;6.734;2023-11-21T06:15:18;9.40;99.90
57652;DHT22;43480;53.116;6.734;2023-11-21T06:17:48;9.40;99.90
57652;DHT22;43480;53.116;6.734;2023-11-21T06:20:20;9.50;99.90
57652;DHT22;43480;53.116;6.734;2023-11-21T06:22:48;9.50;99.90
57652;DHT22;43480;53.116;6.734;2023-11-21T06:25:14;9.50;99.90
57652;DHT22;43480;53.116;6.734;2023-11-21T06:27:44;9.50;99.90
57652;DHT22;43480;53.116;6.734;2023-11-21T06:30:11;9.50;99.90
57652;DHT22;43480;53.116;6.734;2023-11-21T06:32:38;9.50;99.90
57652;DHT22;43480;53.116;6.734;2023-11-21T06:35:04;9.50;99.90
57652;DHT22;43480;53.116;6.734;2023-11-21T06:37:31;9.50;99.90
57652;DHT22;43480;53.116;6.734;2023-11-21T06:39:58;9.50;99.90
57652;DHT22;43480;53.116;6.734;2023-11-21T06:42:25;9.50;99.90
57652;DHT22;43480;53.116;6.734;2023-11-21T06:44:51;9.40;99.90
57652;DHT22;43480;53.116;6.734;2023-11-21T06:47:23;9.40;99.90
57652;DHT22;43480;53.116;6.734;2023-11-21T06:49:52;9.40;99.90
57652;DHT22;43480;53.116;6.734;2023-11-21T06:52:18;9.30;99.90
57652;DHT22;43480;53.116;6.734;2023-11-21T06:54:44;9.30;99.90
57652;DHT22;43480;53.116;6.734;2023-11-21T06:57:11;9.30;99.90
57652;DHT22;43480;53.116;6.734;2023-11-21T06:59:37;9.30;99.90
57652;DHT22;43480;53.116;6.734;2023-11-21T07:02:03;9.30;99.90
57652;DHT22;43480;53.116;6.734;2023-11-21T07:04:30;9.20;99.90
57652;DHT22;43480;53.116;6.734;2023-11-21T07:06:55;9.20;99.90
57652;DHT22;43480;53.116;6.734;2023-11-21T07:09:21;9.30;99.90
57652;DHT22;43480;53.116;6.734;2023-11-21T07:11:50;9.20;99.90
57652;DHT22;43480;53.116;6.734;2023-11-21T07:14:16;9.20;99.90
57652;DHT22;43480;53.116;6.734;2023-11-21T07:16:42;9.20;99.90
57652;DHT22;43480;53.116;6.734;2023-11-21T07:19:08;9.20;99.90
57652;DHT22;43480;53.116;6.734;2023-11-21T07:21:34;9.20;99.90
57652;DHT22;43480;53.116;6.734;2023-11-21T07:24:02;9.20;99.90
57652;DHT22;43480;53.116;6.734;2023-11-21T07:26:28;9.20;99.90
57652;DHT22;43480;53.116;6.734;2023-11-21T07:28:54;9.20;99.90
57652;DHT22;43480;53.116;6.734;2023-11-21T07:31:20;9.10;99.90
57652;DHT22;43480;53.116;6.734;2023-11-21T07:33:46;9.10;99.90
57652;DHT22;43480;53.116;6.734;2023-11-21T07:36:15;9.10;99.90
57652;DHT22;43480;53.116;6.734;2023-11-21T07:38:42;9.10;99.90
57652;DHT22;43480;53.116;6.734;2023-11-21T07:41:08;9.10;99.90
57652;DHT22;43480;53.116;6.734;2023-11-21T07:43:35;9.10;99.90
57652;DHT22;43480;53.116;6.734;2023-11-21T07:46:01;9.10;99.90
57652;DHT22;43480;53.116;6.734;2023-11-21T07:48:32;9.10;99.90
57652;DHT22;43480;53.116;6.734;2023-11-21T07:50:58;9.00;99.90
57652;DHT22;43480;53.116;6.734;2023-11-21T07:53:24;9.00;99.90
57652;DHT22;43480;53.116;6.734;2023-11-21T07:55:51;9.00;99.90
57652;DHT22;43480;53.116;6.734;2023-11-21T07:58:17;9.00;99.90
57652;DHT22;43480;53.116;6.734;2023-11-21T08:00:44;9.00;99.90
57652;DHT22;43480;53.116;6.734;2023-11-21T08:03:09;9.00;99.90
57652;DHT22;43480;53.116;6.734;2023-11-21T08:05:36;9.00;99.90
57652;DHT22;43480;53.116;6.734;2023-11-21T08:08:02;9.00;99.90
57652;DHT22;43480;53.116;6.734;2023-11-21T08:10:28;8.90;99.90
57652;DHT22;43480;53.116;6.734;2023-11-21T08:12:54;9.00;99.90
57652;DHT22;43480;53.116;6.734;2023-11-21T08:15:20;8.90;99.90
57652;DHT22;43480;53.116;6.734;2023-11-21T08:17:46;9.00;99.90
57652;DHT22;43480;53.116;6.734;2023-11-21T08:20:12;9.00;99.90
57652;DHT22;43480;53.116;6.734;2023-11-21T08:22:38;9.00;99.90
57652;DHT22;43480;53.116;6.734;2023-11-21T08:25:06;9.00;99.90
57652;DHT22;43480;53.116;6.734;2023-11-21T08:27:33;9.00;99.90
57652;DHT22;43480;53.116;6.734;2023-11-21T08:30:00;9.00;99.90
57652;DHT22;43480;53.116;6.734;2023-11-21T08:32:26;9.00;99.90
57652;DHT22;43480;53.116;6.734;2023-11-21T08:34:52;9.00;99.90
57652;DHT22;43480;53.116;6.734;2023-11-21T08:37:17;9.00;99.90
57652;DHT22;43480;53.116;6.734;2023-11-21T08:39:44;9.00;99.90
57652;DHT22;43480;53.116;6.734;2023-11-21T08:42:10;9.00;99.90
57652;DHT22;43480;53.116;6.734;2023-11-21T08:44:35;8.90;99.90
57652;DHT22;43480;53.116;6.734;2023-11-21T08:47:01;9.00;99.90
57652;DHT22;43480;53.116;6.734;2023-11-21T08:49:27;8.90;99.90
57652;DHT22;43480;53.116;6.734;2023-11-21T08:51:54;8.90;99.90
57652;DHT22;43480;53.116;6.734;2023-11-21T08:54:25;8.90;99.90
57652;DHT22;43480;53.116;6.734;2023-11-21T08:56:52;8.90;99.90
57652;DHT22;43480;53.116;6.734;2023-11-21T08:59:17;8.90;99.90
57652;DHT22;43480;53.116;6.734;2023-11-21T09:01:43;8.90;99.90
57652;DHT22;43480;53.116;6.734;2023-11-21T09:04:09;8.80;99.90
57652;DHT22;43480;53.116;6.734;2023-11-21T09:06:35;8.90;99.90
57652;DHT22;43480;53.116;6.734;2023-11-21T09:09:00;8.80;99.90
57652;DHT22;43480;53.116;6.734;2023-11-21T09:11:26;8.80;99.90
57652;DHT22;43480;53.116;6.734;2023-11-21T09:13:56;8.80;99.90
57652;DHT22;43480;53.116;6.734;2023-11-21T09:16:23;8.80;99.90
57652;DHT22;43480;53.116;6.734;2023-11-21T09:18:49;8.90;99.90
57652;DHT22;43480;53.116;6.734;2023-11-21T09:21:14;8.90;99.90
57652;DHT22;43480;53.116;6.734;2023-11-21T09:23:40;8.90;99.90
57652;DHT22;43480;53.116;6.734;2023-11-21T09:26:06;8.90;99.90
57652;DHT22;43480;53.116;6.734;2023-11-21T09:28:32;8.90;99.90
57652;DHT22;43480;53.116;6.734;2023-11-21T09:30:57;8.90;99.90
57652;DHT22;43480;53.116;6.734;2023-11-21T09:33:23;8.90;99.90
57652;DHT22;43480;53.116;6.734;2023-11-21T09:35:50;8.80;99.90
57652;DHT22;43480;53.116;6.734;2023-11-21T09:38:16;8.80;99.90
57652;DHT22;43480;53.116;6.734;2023-11-21T09:40:42;8.80;99.90
57652;DHT22;43480;53.116;6.734;2023-11-21T09:43:16;8.80;99.90
57652;DHT22;43480;53.116;6.734;2023-11-21T09:45:47;8.80;99.90
57652;DHT22;43480;53.116;6.734;2023-11-21T09:48:14;8.80;99.90
57652;DHT22;43480;53.116;6.734;2023-11-21T09:50:42;8.90;99.90
57652;DHT22;43480;53.116;6.734;2023-11-21T09:53:19;8.80;99.90
57652;DHT22;43480;53.116;6.734;2023-11-21T09:55:53;8.90;99.90
57652;DHT22;43480;53.116;6.734;2023-11-21T09:58:19;8.90;99.90
57652;DHT22;43480;53.116;6.734;2023-11-21T10:00:47;8.90;99.90
57652;DHT22;43480;53.116;6.734;2023-11-21T10:03:13;9.00;99.90
57652;DHT22;43480;53.116;6.734;2023-11-21T10:05:40;9.10;99.90
57652;DHT22;43480;53.116;6.734;2023-11-21T10:08:11;9.20;99.90
57652;DHT22;43480;53.116;6.734;2023-11-21T10:10:37;9.20;99.90
57652;DHT22;43480;53.116;6.734;2023-11-21T10:13:06;9.30;99.90
57652;DHT22;43480;53.116;6.734;2023-11-21T10:15:35;9.30;99.90
57652;DHT22;43480;53.116;6.734;2023-11-21T10:18:07;9.30;99.90
57652;DHT22;43480;53.116;6.734;2023-11-21T10:20:33;9.30;99.90
57652;DHT22;43480;53.116;6.734;2023-11-21T10:23:02;9.30;99.90
57652;DHT22;43480;53.116;6.734;2023-11-21T10:25:29;9.30;99.90
57652;DHT22;43480;53.116;6.734;2023-11-21T10:27:58;9.40;99.90
57652;DHT22;43480;53.116;6.734;2023-11-21T10:32:59;9.40;99.90
57652;DHT22;43480;53.116;6.734;2023-11-21T10:35:47;9.30;99.90
57652;DHT22;43480;53.116;6.734;2023-11-21T10:38:16;9.30;99.90
57652;DHT22;43480;53.116;6.734;2023-11-21T10:40:44;9.30;99.90
57652;DHT22;43480;53.116;6.734;2023-11-21T10:43:10;9.30;99.90
57652;DHT22;43480;53.116;6.734;2023-11-21T10:45:38;9.30;99.90
57652;DHT22;43480;53.116;6.734;2023-11-21T10:48:08;9.30;99.90
57652;DHT22;43480;53.116;6.734;2023-11-21T10:50:35;9.30;99.90
57652;DHT22;43480;53.116;6.734;2023-11-21T10:53:05;9.30;99.90
57652;DHT22;43480;53.116;6.734;2023-11-21T10:55:32;9.30;99.90
57652;DHT22;43480;53.116;6.734;2023-11-21T10:58:02;9.40;99.90
57652;DHT22;43480;53.116;6.734;2023-11-21T11:00:31;9.40;99.90
57652;DHT22;43480;53.116;6.734;2023-11-21T11:02:57;9.60;99.90
57652;DHT22;43480;53.116;6.734;2023-11-21T11:05:28;9.60;99.90
57652;DHT22;43480;53.116;6.734;2023-11-21T11:08:05;9.70;99.90
57652;DHT22;43480;53.116;6.734;2023-11-21T11:10:33;9.70;99.90
57652;DHT22;43480;53.116;6.734;2023-11-21T11:13:00;9.60;99.90
57652;DHT22;43480;53.116;6.734;2023-11-21T11:15:27;9.60;99.90
57652;DHT22;43480;53.116;6.734;2023-11-21T11:17:54;9.60;99.90
57652;DHT22;43480;53.116;6.734;2023-11-21T11:20:24;9.60;99.90
57652;DHT22;43480;53.116;6.734;2023-11-21T11:23:23;9.60;99.90
57652;DHT22;43480;53.116;6.734;2023-11-21T11:26:19;9.50;99.90
57652;DHT22;43480;53.116;6.734;2023-11-21T11:29:08;9.50;99.90
57652;DHT22;43480;53.116;6.734;2023-11-21T11:31:43;9.50;99.90
57652;DHT22;43480;53.116;6.734;2023-11-21T11:34:28;9.40;99.90
57652;DHT22;43480;53.116;6.734;2023-11-21T11:37:02;9.50;99.90
57652;DHT22;43480;53.116;6.734;2023-11-21T11:39:36;9.40;99.90
57652;DHT22;43480;53.116;6.734;2023-11-21T11:42:04;9.50;99.90
57652;DHT22;43480;53.116;6.734;2023-11-21T11:47:29;9.40;99.90
57652;DHT22;43480;53.116;6.734;2023-11-21T11:50:09;9.40;99.90
57652;DHT22;43480;53.116;6.734;2023-11-21T11:52:41;9.40;99.90
57652;DHT22;43480;53.116;6.734;2023-11-21T11:55:12;9.40;99.90
57652;DHT22;43480;53.116;6.734;2023-11-21T11:57:45;9.40;99.90
57652;DHT22;43480;53.116;6.734;2023-11-21T12:00:20;9.60;99.90
57652;DHT22;43480;53.116;6.734;2023-11-21T12:02:51;9.70;99.90
57652;DHT22;43480;53.116;6.734;2023-11-21T12:05:21;9.70;99.90
57652;DHT22;43480;53.116;6.734;2023-11-21T12:07:55;9.60;99.90
57652;DHT22;43480;53.116;6.734;2023-11-21T12:10:27;9.60;99.90
57652;DHT22;43480;53.116;6.734;2023-11-21T12:13:00;9.60;99.90
57652;DHT22;43480;53.116;6.734;2023-11-21T12:15:27;9.60;99.90
57652;DHT22;43480;53.116;6.734;2023-11-21T12:17:56;9.50;99.90
57652;DHT22;43480;53.116;6.734;2023-11-21T12:20:23;9.40;99.90
57652;DHT22;43480;53.116;6.734;2023-11-21T12:25:21;9.40;99.90
57652;DHT22;43480;53.116;6.734;2023-11-21T12:27:48;9.40;99.90
57652;DHT22;43480;53.116;6.734;2023-11-21T12:30:17;9.40;99.90
57652;DHT22;43480;53.116;6.734;2023-11-21T12:32:44;9.40;99.90
57652;DHT22;43480;53.116;6.734;2023-11-21T12:35:12;9.40;99.90
57652;DHT22;43480;53.116;6.734;2023-11-21T12:37:39;9.40;99.90
57652;DHT22;43480;53.116;6.734;2023-11-21T12:40:06;9.30;99.90
57652;DHT22;43480;53.116;6.734;2023-11-21T12:42:33;9.20;99.90
57652;DHT22;43480;53.116;6.734;2023-11-21T12:45:24;9.20;99.90
57652;DHT22;43480;53.116;6.734;2023-11-21T12:47:56;9.20;99.90
57652;DHT22;43480;53.116;6.734;2023-11-21T12:50:25;9.10;99.90
57652;DHT22;43480;53.116;6.734;2023-11-21T12:52:57;9.20;99.90
57652;DHT22;43480;53.116;6.734;2023-11-21T12:55:23;9.20;99.90
57652;DHT22;43480;53.116;6.734;2023-11-21T12:57:51;9.30;99.90
57652;DHT22;43480;53.116;6.734;2023-11-21T13:00:18;9.40;99.90
57652;DHT22;43480;53.116;6.734;2023-11-21T13:02:57;9.50;99.90
57652;DHT22;43480;53.116;6.734;2023-11-21T13:05:28;9.70;99.90
57652;DHT22;43480;53.116;6.734;2023-11-21T13:07:55;9.70;99.90
57652;DHT22;43480;53.116;6.734;2023-11-21T13:10:26;9.70;99.90
57652;DHT22;43480;53.116;6.734;2023-11-21T13:12:57;9.70;99.90
57652;DHT22;43480;53.116;6.734;2023-11-21T13:15:24;9.70;99.90
57652;DHT22;43480;53.116;6.734;2023-11-21T13:17:51;9.70;99.90
57652;DHT22;43480;53.116;6.734;2023-11-21T13:20:17;9.70;99.90
57652;DHT22;43480;53.116;6.734;2023-11-21T13:22:53;9.60;99.90
57652;DHT22;43480;53.116;6.734;2023-11-21T13:25:27;9.60;99.90
57652;DHT22;43480;53.116;6.734;2023-11-21T13:27:59;9.60;99.90
57652;DHT22;43480;53.116;6.734;2023-11-21T13:30:26;9.60;99.90
57652;DHT22;43480;53.116;6.734;2023-11-21T13:32:53;9.50;99.90
57652;DHT22;43480;53.116;6.734;2023-11-21T13:35:23;9.50;99.90
57652;DHT22;43480;53.116;6.734;2023-11-21T13:38:11;9.40;99.90
57652;DHT22;43480;53.116;6.734;2023-11-21T13:40:39;9.30;99.90
57652;DHT22;43480;53.116;6.734;2023-11-21T13:43:18;9.30;99.90
57652;DHT22;43480;53.116;6.734;2023-11-21T13:45:47;9.30;99.90
57652;DHT22;43480;53.116;6.734;2023-11-21T13:48:13;9.20;99.90
57652;DHT22;43480;53.116;6.734;2023-11-21T13:50:40;9.20;99.90
57652;DHT22;43480;53.116;6.734;2023-11-21T13:53:14;9.10;99.90
57652;DHT22;43480;53.116;6.734;2023-11-21T13:55:49;9.20;99.90
57652;DHT22;43480;53.116;6.734;2023-11-21T13:58:16;9.20;99.90
57652;DHT22;43480;53.116;6.734;2023-11-21T14:00:47;9.20;99.90
57652;DHT22;43480;53.116;6.734;2023-11-21T14:03:17;9.10;99.90
57652;DHT22;43480;53.116;6.734;2023-11-21T14:05:46;9.10;99.90
57652;DHT22;43480;53.116;6.734;2023-11-21T14:08:19;9.10;99.90
57652;DHT22;43480;53.116;6.734;2023-11-21T14:10:47;9.10;99.90
57652;DHT22;43480;53.116;6.734;2023-11-21T14:13:19;9.00;99.90
57652;DHT22;43480;53.116;6.734;2023-11-21T14:15:49;9.00;99.90
57652;DHT22;43480;53.116;6.734;2023-11-21T14:18:16;9.00;99.90
57652;DHT22;43480;53.116;6.734;2023-11-21T14:20:43;8.90;99.90
57652;DHT22;43480;53.116;6.734;2023-11-21T14:23:10;8.90;99.90
57652;DHT22;43480;53.116;6.734;2023-11-21T14:25:37;8.90;99.90
57652;DHT22;43480;53.116;6.734;2023-11-21T14:28:03;8.90;99.90
57652;DHT22;43480;53.116;6.734;2023-11-21T14:30:32;8.80;99.90
57652;DHT22;43480;53.116;6.734;2023-11-21T14:32:59;8.80;99.90
57652;DHT22;43480;53.116;6.734;2023-11-21T14:35:26;8.80;99.90
57652;DHT22;43480;53.116;6.734;2023-11-21T14:37:52;8.80;99.90
57652;DHT22;43480;53.116;6.734;2023-11-21T14:40:19;8.70;99.90
57652;DHT22;43480;53.116;6.734;2023-11-21T14:42:50;8.70;99.90
57652;DHT22;43480;53.116;6.734;2023-11-21T14:45:19;8.70;99.90
57652;DHT22;43480;53.116;6.734;2023-11-21T14:47:46;8.70;99.90
57652;DHT22;43480;53.116;6.734;2023-11-21T14:50:21;8.70;99.90
57652;DHT22;43480;53.116;6.734;2023-11-21T14:53:05;8.60;99.90
57652;DHT22;43480;53.116;6.734;2023-11-21T14:55:35;8.60;99.90
57652;DHT22;43480;53.116;6.734;2023-11-21T14:58:22;8.60;99.90
57652;DHT22;43480;53.116;6.734;2023-11-21T15:00:57;8.50;99.90
57652;DHT22;43480;53.116;6.734;2023-11-21T15:03:27;8.50;99.90
57652;DHT22;43480;53.116;6.734;2023-11-21T15:06:02;8.50;99.90
57652;DHT22;43480;53.116;6.734;2023-11-21T15:08:55;8.50;99.90
57652;DHT22;43480;53.116;6.734;2023-11-21T15:11:33;8.50;99.90
57652;DHT22;43480;53.116;6.734;2023-11-21T15:13:59;8.40;99.90
57652;DHT22;43480;53.116;6.734;2023-11-21T15:16:26;8.40;99.90
57652;DHT22;43480;53.116;6.734;2023-11-21T15:18:52;8.40;99.90
57652;DHT22;43480;53.116;6.734;2023-11-21T15:21:19;8.40;99.90
57652;DHT22;43480;53.116;6.734;2023-11-21T15:23:46;8.40;99.90
57652;DHT22;43480;53.116;6.734;2023-11-21T15:26:12;8.30;99.90
57652;DHT22;43480;53.116;6.734;2023-11-21T15:28:38;8.30;99.90
57652;DHT22;43480;53.116;6.734;2023-11-21T15:31:04;8.30;99.90
57652;DHT22;43480;53.116;6.734;2023-11-21T15:33:30;8.30;99.90
57652;DHT22;43480;53.116;6.734;2023-11-21T15:35:56;8.10;99.90
57652;DHT22;43480;53.116;6.734;2023-11-21T15:38:23;8.20;99.90
57652;DHT22;43480;53.116;6.734;2023-11-21T15:40:49;8.10;99.90
57652;DHT22;43480;53.116;6.734;2023-11-21T15:43:15;8.10;99.90
57652;DHT22;43480;53.116;6.734;2023-11-21T15:45:41;8.00;99.90
57652;DHT22;43480;53.116;6.734;2023-11-21T15:48:07;8.00;99.90
57652;DHT22;43480;53.116;6.734;2023-11-21T15:50:33;7.90;99.90
57652;DHT22;43480;53.116;6.734;2023-11-21T15:53:00;7.90;99.90
57652;DHT22;43480;53.116;6.734;2023-11-21T15:55:26;7.80;99.90
57652;DHT22;43480;53.116;6.734;2023-11-21T15:57:52;7.70;99.90